Tiempo atmosférico en la estación meteorológica de Arucas, Las Palmas (86 m.)



Fecha
DESCASC
Temp. máxima en grados centígrados (hora)
DESCASC
Temp. mínima en grados centígrados (hora)
DESCASC
Temp. media en grados centígrados
DESCASC
Racha de viento máxima en m/sg (hora)
DESCASC
Velocidad máxima media en intervalos de 10 minutos(hora)
DESCASC
Precipitaciones diarias en mm
DESCASC
Precipitaciones de 00:00 a 06:00 en mm
DESCASC
Precipitaciones de 06:00 a 12:00 en mm
DESCASC
Precipitaciones de 12:00 a 18:00 en mm
DESCASC
Precipitaciones de 18:00 a 24:00 en mm
DESCASC
21-02-2019 21 (15:40) 14 (07:00) 17.5 9.44 (11:00) 5.83 (14:30) 0 0 0 0 0
20-02-2019 19.9 (13:10) 13.7 (04:50) 16.8 6.39 (03:30) 3.89 (03:40) 0 0 0 0 0
19-02-2019 19.1 (12:10) 14.8 (04:30) 17 9.17 (04:10) 5 (00:40) 0 0 0 0 0
18-02-2019 17.3 (10:00) 13.5 (03:40) 15.4 10.28 (17:40) 6.39 (14:50) 1.4 0 1.4 0 0
17-02-2019 19.8 (13:20) 12.6 (00:00) 16.2 3.89 (12:20) 2.22 (13:20) 0 0 0 0 0
16-02-2019 19.2 (13:50) 14.8 (00:00) 17 10.83 (01:10) 5.83 (01:10) 2 2 0 0 0
15-02-2019 18.4 (04:20) 14.8 (00:00) 16.6 11.67 (23:50) 6.39 (23:59) 4 0 1.2 1.4 1.4
14-02-2019 27.7 (15:00) 14.7 (00:00) 21.2 6.67 (05:40) 4.72 (05:40) 0 0 0 0 0
13-02-2019 26.6 (12:30) 15.6 (00:00) 21.1 9.72 (08:40) 5.56 (07:10) 0 0 0 0 0
12-02-2019 25.7 (11:20) 15.4 (00:00) 20.6 10.83 (13:00) 6.67 (10:40) 0 0 0 0 0
11-02-2019 27.1 (14:20) 14.8 (00:00) 21 11.67 (08:40) 6.67 (08:40) 0 0 0 0 0
10-02-2019 24.6 (13:00) 11.5 (00:00) 18.1 10 (12:50) 6.11 (12:10) 0 0 0 0 0
09-02-2019 20.2 (14:10) 13.6 (00:00) 16.9 8.06 (16:00) 5 (13:30) 0 0 0 0 0
08-02-2019 19 (14:30) 14.1 (00:00) 16.6 7.78 (14:00) 4.72 (12:10) 0 0 0 0 0
07-02-2019 19.9 (13:00) 14.3 (00:00) 17.1 7.22 (16:00) 4.17 (11:40) 0 0 0 0 0
06-02-2019 22.7 (12:40) 15.4 (00:00) 19.1 9.44 (14:10) 5.83 (13:00) 0 0 0 0 0
05-02-2019 23.1 (13:50) 14.9 (00:00) 19 12.78 (13:40) 6.94 (14:10) 0 0 0 0 0
04-02-2019 20 (16:00) 15.3 (00:00) 17.7 9.72 (12:00) 6.11 (14:00) 0 0 0 0 0
03-02-2019 18.1 (12:10) 16 (00:00) 17.1 8.89 (02:00) 5 (03:50) 0 0 0 0 0
02-02-2019 18.1 (14:30) 16.1 (00:00) 17.1 9.72 (04:00) 6.11 (04:40) 5.4 5.2 0.2 0 0
01-02-2019 20.5 (15:00) 16.5 (00:00) 18.5 9.72 (18:00) 5.56 (18:30) 0.6 0 0 0 0.6
31-01-2019 19.4 (13:20) 15.8 (00:00) 17.6 7.78 (00:50) 4.44 (01:10) 0 0 0 0 0
30-01-2019 19.7 (13:10) 15.5 (00:00) 17.6 7.22 (19:20) 4.17 (05:30) 0.4 0.4 0 0 0
29-01-2019 18 (12:20) 15.4 (00:00) 16.7 6.94 (08:00) 3.61 (09:30) 0.6 0 0 0 0.6
28-01-2019 18.9 (12:50) 16.1 (00:00) 17.5 7.78 (19:00) 4.17 (19:00) 0 0 0 0 0
27-01-2019 20.4 (15:20) 13.3 (00:00) 16.8 5.56 (06:00) 3.33 (05:00) 0 0 0 0 0
26-01-2019 19.2 (13:50) 12.2 (00:00) 15.7 3.33 (13:50) 2.5 (03:20) 0 0 0 0 0
25-01-2019 19.4 (12:20) 14.9 (00:00) 17.1 4.44 (04:30) 2.78 (06:40) 3.8 1.6 1.2 0 1
24-01-2019 19.2 (15:10) 14.6 (00:00) 16.9 8.06 (09:10) 4.17 (02:40) 0.8 0.2 0.6 0 0

Gráficas

Temp. máximas Temp. mínimas Temp. medias Precipitaciones Rachas de viento máximas Velocidades máximas media en intervalos de 10 minutos

Datos horarios

Fecha y hora oficial Temperatura (ºC) Velocidad del viento (km/h) Dirección del viento Racha (km/h) Dirección de racha Precipitación (mm) Presión (hPa) Tendencia (hPa) Humedad (%)
2019-02-22 23:00:00 15.3 4 Sudoeste 7 Sudoeste 0 -- -- 72
2019-02-22 22:00:00 15.8 3 Oeste 8 Oeste 0 -- -- 67
2019-02-22 21:00:00 16.6 0 Calma 10 Sudoeste 0 -- -- 64
2019-02-22 20:00:00 18.6 6 Sudoeste 14 Oeste 0 -- -- 60
2019-02-22 19:00:00 19.8 12 Oeste 30 Oeste 0 -- -- 63
2019-02-22 18:00:00 22.2 20 Oeste 29 Oeste 0 -- -- 53
2019-02-22 17:00:00 25.1 8 Oeste 18 Noroeste 0 -- -- 35
2019-02-22 16:00:00 25.1 9 Noroeste 32 Sudeste 0 -- -- 35
2019-02-22 15:00:00 28.2 17 Sudeste 43 Sudeste 0 -- -- 18
2019-02-22 14:00:00 27.8 24 Sudeste 48 Sudeste 0 -- -- 20
2019-02-22 13:00:00 27.8 22 Sudeste 42 Sudeste 0 -- -- 19
2019-02-22 12:00:00 27.3 20 Sudeste 40 Sudeste 0 -- -- 24
2019-02-22 11:00:00 25.3 19 Sudeste 33 Sudeste 0 -- -- 35
2019-02-22 10:00:00 22.9 9 Sudeste 16 Este 0 -- -- 39
2019-02-22 09:00:00 22.2 6 Sudeste 26 Sudeste 0 -- -- 27
2019-02-22 08:00:00 19.9 19 Sur 34 Sur 0 -- -- 31
2019-02-22 07:00:00 19.5 16 Sur 30 Sur 0 -- -- 29
2019-02-22 06:00:00 19.4 19 Sur 37 Sudeste 0 -- -- 32
2019-02-22 05:00:00 17.7 26 Sur 35 Sudeste 0 -- -- 40
2019-02-22 04:00:00 17.6 21 Sur 28 Sudeste 0 -- -- 37
2019-02-22 03:00:00 17.5 16 Sur 26 Sur 0 -- -- 42
2019-02-22 02:00:00 16.7 18 Sudeste 24 Sudeste 0 -- -- 53
2019-02-22 01:00:00 15.8 14 Sudeste 19 Sudeste 0 -- -- 78
2019-02-22 00:00:00 16 12 Sudeste 17 Sur 0 -- -- 81
2019-02-21 23:00:00 15.2 8 Sudeste 13 Sudeste 0 -- -- 73
2019-02-21 22:00:00 14.7 4 Sudoeste 8 Sudoeste 0 -- -- 78
2019-02-21 21:00:00 16.3 4 Noroeste 13 Sur 0 -- -- 67
2019-02-21 20:00:00 18 6 Sudoeste 16 Sur 0 -- -- 57
2019-02-21 19:00:00 18.6 7 Este 22 Este 0 -- -- 61
2019-02-21 18:00:00 19.7 11 Este 25 Este 0 -- -- 65
2019-02-21 17:00:00 20.1 16 Este 25 Este 0 -- -- 68
2019-02-21 16:00:00 20.8 18 Este 28 Este 0 -- -- 60
2019-02-21 15:00:00 20.5 20 Este 31 Este 0 -- -- 62
2019-02-21 14:00:00 20.7 16 Este 33 Este 0 -- -- 63
2019-02-21 13:00:00 20.6 18 Sudeste 31 Sudeste 0 -- -- 62
2019-02-21 12:00:00 19.6 18 Sudeste 32 Sudeste 0 -- -- 69
2019-02-21 11:00:00 18.6 17 Sudeste 34 Sudeste 0 -- -- 72
2019-02-21 10:00:00 18.4 18 Sudeste 28 Sudeste 0 -- -- 73
2019-02-21 09:00:00 16.7 13 Sur 22 Sudeste 0 -- -- 74
2019-02-21 08:00:00 14.4 10 Sur 18 Sur 0 -- -- 78
2019-02-21 07:00:00 14 11 Sur 19 Sur 0 -- -- 77
2019-02-21 06:00:00 14.2 12 Sur 18 Sur 0 -- -- 75
2019-02-21 05:00:00 14.6 10 Sur 18 Sur 0 -- -- 75
2019-02-21 04:00:00 14.8 10 Sur 15 Sur 0 -- -- 74
2019-02-21 03:00:00 14.9 9 Sur 15 Sudeste 0 -- -- 76
2019-02-21 02:00:00 14.9 10 Sur 15 Sur 0 -- -- 76
2019-02-21 01:00:00 15.3 5 Sur 12 Sur 0 -- -- 78
2019-02-21 00:00:00 15.2 8 Sur 12 Sur 0 -- -- 78
2019-02-20 23:00:00 15.7 6 Sudeste 13 Este 0 -- -- 77
2019-02-20 22:00:00 16.2 8 Este 17 Este 0 -- -- 74
2019-02-20 21:00:00 16.8 8 Este 13 Nordeste 0 -- -- 74
2019-02-20 20:00:00 16.9 7 Este 15 Este 0 -- -- 72
2019-02-20 19:00:00 17 9 Este 15 Este 0 -- -- 69
2019-02-20 18:00:00 17.3 8 Nordeste 14 Nordeste 0 -- -- 68
2019-02-20 17:00:00 17.6 8 Nordeste 17 Nordeste 0 -- -- 67
2019-02-20 16:00:00 18.2 9 Nordeste 18 Nordeste 0 -- -- 66
2019-02-20 15:00:00 18.9 10 Nordeste 18 Nordeste 0 -- -- 61
2019-02-20 14:00:00 19.5 11 Nordeste 21 Nordeste 0 -- -- 60
2019-02-20 13:00:00 19.3 13 Nordeste 20 Nordeste 0 -- -- 55
2019-02-20 12:00:00 19.5 14 Este 20 Este 0 -- -- 50
2019-02-20 11:00:00 18.3 11 Este 17 Este 0 -- -- 56
2019-02-20 10:00:00 17 9 Sudeste 16 Sudeste 0 -- -- 57
2019-02-20 09:00:00 15.8 4 Sudeste 10 Sur 0 -- -- 64
2019-02-20 08:00:00 15 4 Sur 8 Sudoeste 0 -- -- 64
2019-02-20 07:00:00 14.8 5 Sur 12 Sudoeste 0 -- -- 62
2019-02-20 06:00:00 14.7 8 Sur 15 Sudoeste 0 -- -- 60
2019-02-20 05:00:00 13.8 5 Sudeste 17 Norte 0 -- -- 64
2019-02-20 04:00:00 15.2 9 Nordeste 23 Norte 0 -- -- 61
2019-02-20 03:00:00 15.9 10 Nordeste 20 Nordeste 0 -- -- 61
2019-02-20 02:00:00 15.5 6 Nordeste 14 Nordeste 0 -- -- 62
2019-02-20 01:00:00 15.6 7 Norte 19 Norte 0 -- -- 61
2019-02-20 00:00:00 15.8 8 Norte 17 Norte 0 -- -- 62
2019-02-19 23:00:00 15.9 8 Norte 19 Norte 0 -- -- 66
2019-02-19 22:00:00 15.9 11 Norte 23 Norte 0 -- -- 65
2019-02-19 21:00:00 15.9 11 Norte 21 Norte 0 -- -- 72
2019-02-19 20:00:00 15.9 11 Norte 22 Norte 0 -- -- 66
2019-02-19 19:00:00 15.8 6 Noroeste 28 Norte 0 -- -- 70
2019-02-19 18:00:00 16.8 8 Norte 20 Norte 0 -- -- 62
2019-02-19 17:00:00 18.1 9 Norte 20 Norte 0 -- -- 56
2019-02-19 16:00:00 18.3 11 Norte 23 Norte 0 -- -- 55
2019-02-19 15:00:00 18.8 13 Norte 23 Norte 0 -- -- 54
2019-02-19 14:00:00 18.5 13 Norte 23 Nordeste 0 -- -- 56
2019-02-19 13:00:00 19 11 Norte 24 Norte 0 -- -- 59
2019-02-19 12:00:00 18.9 10 Norte 17 Norte 0 -- -- 53
2019-02-19 11:00:00 18.3 12 Norte 24 Norte 0 -- -- 51
2019-02-19 10:00:00 17.2 12 Norte 27 Norte 0 -- -- 61
2019-02-19 09:00:00 16 10 Norte 18 Norte 0 -- -- 69
2019-02-19 08:00:00 15.3 9 Norte 18 Norte 0 -- -- 69
2019-02-19 07:00:00 14.8 8 Norte 23 Norte 0 -- -- 71
2019-02-19 06:00:00 15 11 Norte 22 Norte 0 -- -- 72
2019-02-19 05:00:00 15.1 11 Norte 33 Norte 0 -- -- 72
2019-02-19 04:00:00 15.3 10 Norte 24 Norte 0 -- -- 69
2019-02-19 03:00:00 15.3 10 Norte 27 Norte 0 -- -- 69
2019-02-19 02:00:00 15.2 13 Norte 24 Norte 0 -- -- 59
2019-02-19 01:00:00 15.5 12 Norte 28 Norte 0 -- -- 62
2019-02-19 00:00:00 15.6 11 Norte 28 Norte 0 -- -- 64
2019-02-18 23:00:00 15.8 17 Norte 26 Norte 0 -- -- 62
2019-02-18 22:00:00 15.7 11 Norte 30 Norte 0 -- -- 62
2019-02-18 21:00:00 16 15 Norte 32 Norte 0 -- -- 66
2019-02-18 20:00:00 16 20 Norte 32 Norte 0 -- -- 67
2019-02-18 19:00:00 16.2 17 Norte 27 Norte 0 -- -- 68
2019-02-18 18:00:00 16.6 15 Norte 37 Norte 0 -- -- 64
2019-02-18 17:00:00 17 15 Norte 27 Norte 0 -- -- 67
2019-02-18 16:00:00 17.1 14 Norte 32 Norte 0 -- -- 62
2019-02-18 15:00:00 16.9 23 Norte 35 Norte 0 -- -- 69
2019-02-18 14:00:00 17.2 16 Norte 29 Norte 0 -- -- 76
2019-02-18 13:00:00 16.4 15 Norte 37 Norte 0 -- -- 83
2019-02-18 12:00:00 16.1 11 Nordeste 31 Nordeste 1.2 -- -- 91
2019-02-18 11:00:00 15.9 16 Norte 33 Norte 0.2 -- -- 91
2019-02-18 10:00:00 17.3 9 Norte 22 Norte 0 -- -- 82
2019-02-18 09:00:00 16.4 7 Oeste 15 Sudoeste 0 -- -- 77
2019-02-18 08:00:00 15.1 8 Oeste 13 Sudoeste 0 -- -- 81
2019-02-18 07:00:00 14.6 8 Sudoeste 13 Sudoeste 0 -- -- 82
2019-02-18 06:00:00 14.9 9 Sudoeste 13 Sudoeste 0 -- -- 82
2019-02-18 05:00:00 14.8 7 Oeste 11 Oeste 0 -- -- 85
2019-02-18 04:00:00 13.8 3 Oeste 7 Sudoeste 0 -- -- 89
2019-02-18 03:00:00 14 3 Oeste 8 Sudoeste 0 -- -- 89
2019-02-18 02:00:00 13.9 5 Sudoeste 7 Sudoeste 0 -- -- 88
2019-02-18 01:00:00 14.6 4 Sudoeste 8 Oeste 0 -- -- 84
2019-02-18 00:00:00 15.1 5 Oeste 10 Oeste 0 -- -- 83
2019-02-17 23:00:00 14.8 3 Oeste 8 Oeste 0 -- -- 85
2019-02-17 22:00:00 15.4 4 Oeste 8 Oeste 0 -- -- 83
2019-02-17 21:00:00 16.4 4 Oeste 10 Norte 0 -- -- 80
2019-02-17 20:00:00 16.9 3 Noroeste 9 Norte 0 -- -- 79
2019-02-17 19:00:00 17.3 4 Noroeste 10 Norte 0 -- -- 77
2019-02-17 18:00:00 18.3 4 Norte 10 Norte 0 -- -- 73
2019-02-17 17:00:00 19 5 Nordeste 11 Nordeste 0 -- -- 69
2019-02-17 16:00:00 19.4 6 Norte 12 Norte 0 -- -- 69
2019-02-17 15:00:00 19.6 7 Norte 12 Norte 0 -- -- 71
2019-02-17 14:00:00 19.4 6 Nordeste 12 Norte 0 -- -- 69
2019-02-17 13:00:00 19.6 7 Nordeste 14 Nordeste 0 -- -- 68
2019-02-17 12:00:00 19.7 5 Nordeste 13 Nordeste 0 -- -- 69
2019-02-17 11:00:00 19.1 6 Nordeste 11 Este 0 -- -- 70
2019-02-17 10:00:00 18.6 4 Este 8 Este 0 -- -- 73
2019-02-17 09:00:00 16.4 0 Calma 5 Sur 0 -- -- 85
2019-02-17 08:00:00 13.9 4 Sur 10 Sur 0 -- -- 88
2019-02-17 07:00:00 12.6 4 Sudeste 6 Este 0 -- -- 90
2019-02-17 06:00:00 13.7 5 Sur 8 Sudeste 0 -- -- 87
2019-02-17 05:00:00 14.2 5 Sur 9 Sudeste 0 -- -- 85
2019-02-17 04:00:00 14 6 Sur 10 Sur 0 -- -- 76
2019-02-17 03:00:00 14.7 4 Sur 8 Sur 0 -- -- 87
2019-02-17 02:00:00 14.9 5 Sur 9 Sur 0 -- -- 90
2019-02-17 01:00:00 15.9 4 Sudeste 9 Nordeste 0 -- -- 85
2019-02-17 00:00:00 16.9 7 Norte 12 Norte 0 -- -- 82
2019-02-16 23:00:00 17.1 8 Norte 17 Oeste 0 -- -- 82
2019-02-16 22:00:00 17.2 9 Noroeste 20 Noroeste 0 -- -- 83
2019-02-16 21:00:00 17 5 Noroeste 18 Norte 0 -- -- 82
2019-02-16 20:00:00 17 8 Noroeste 16 Noroeste 0 -- -- 81
2019-02-16 19:00:00 17 8 Noroeste 19 Noroeste 0 -- -- 77
2019-02-16 18:00:00 17.6 11 Noroeste 22 Noroeste 0 -- -- 72
2019-02-16 17:00:00 18.1 12 Noroeste 22 Noroeste 0 -- -- 68
2019-02-16 16:00:00 18.8 12 Noroeste 26 Noroeste 0 -- -- 66
2019-02-16 15:00:00 18.9 14 Noroeste 24 Noroeste 0 -- -- 68
2019-02-16 14:00:00 19.2 12 Noroeste 27 Noroeste 0 -- -- 67
2019-02-16 13:00:00 18.7 14 Noroeste 27 Noroeste 0 -- -- 67
2019-02-16 12:00:00 17.8 13 Noroeste 24 Noroeste 0 -- -- 71
2019-02-16 11:00:00 16.3 12 Noroeste 27 Noroeste 0 -- -- 80
2019-02-16 10:00:00 17.9 9 Noroeste 23 Noroeste 0 -- -- 70
2019-02-16 09:00:00 16.5 14 Noroeste 24 Noroeste 0 -- -- 72
2019-02-16 08:00:00 16 10 Noroeste 24 Noroeste 0 -- -- 74
2019-02-16 07:00:00 15.7 13 Noroeste 25 Noroeste 0 -- -- 76
2019-02-16 06:00:00 15.7 14 Noroeste 29 Oeste 0 -- -- 78
2019-02-16 05:00:00 15.3 18 Noroeste 33 Oeste 0.4 -- -- 84
2019-02-16 04:00:00 15.2 15 Oeste 30 Oeste 0 -- -- 84
2019-02-16 03:00:00 14.8 10 Noroeste 32 Noroeste 1.6 -- -- 88
2019-02-16 02:00:00 15.1 15 Oeste 39 Noroeste 0 -- -- 82
2019-02-16 01:00:00 15.7 17 Oeste 34 Noroeste 0 -- -- 79
2019-02-16 00:00:00 15.7 23 Noroeste 42 Noroeste 0 -- -- 77
2019-02-15 23:00:00 16 16 Noroeste 31 Noroeste 0.4 -- -- 76
2019-02-15 22:00:00 16 14 Noroeste 35 Noroeste 0.2 -- -- 76
2019-02-15 21:00:00 15.8 18 Noroeste 30 Noroeste 0 -- -- 74
2019-02-15 20:00:00 14.8 15 Oeste 40 Oeste 0.8 -- -- 82
2019-02-15 19:00:00 16.4 20 Noroeste 35 Oeste 0 -- -- 73
2019-02-15 18:00:00 16.7 19 Noroeste 40 Noroeste 0 -- -- 70
2019-02-15 17:00:00 17.5 19 Noroeste 33 Noroeste 0 -- -- 70
2019-02-15 16:00:00 18 16 Noroeste 38 Noroeste 0.2 -- -- 74
2019-02-15 15:00:00 16.3 10 Oeste 18 Oeste 0.2 -- -- 89
2019-02-15 14:00:00 16.4 8 Noroeste 15 Norte 0 -- -- 84
2019-02-15 13:00:00 15.6 10 Norte 22 Norte 1 -- -- 89
2019-02-15 12:00:00 15.7 4 Noroeste 23 Noroeste 0.4 -- -- 87
2019-02-15 11:00:00 15.9 14 Noroeste 27 Noroeste 0 -- -- 79
2019-02-15 10:00:00 15.6 14 Noroeste 34 Noroeste 0.6 -- -- 87
2019-02-15 09:00:00 16.8 10 Noroeste 26 Norte 0.2 -- -- 84
2019-02-15 08:00:00 17.1 6 Norte 19 Norte 0 -- -- 84
2019-02-15 07:00:00 17.3 6 Noroeste 17 Noroeste 0 -- -- 84
2019-02-15 06:00:00 17.4 8 Noroeste 25 Norte 0 -- -- 84
2019-02-15 05:00:00 17.8 13 Noroeste 27 Nordeste 0 -- -- 81
2019-02-15 04:00:00 17.7 8 Sudeste 13 Este 0 -- -- 63
2019-02-15 03:00:00 15.8 4 Sudoeste 10 Sudoeste 0 -- -- 49
2019-02-15 02:00:00 16.2 3 Sur 7 Sudeste 0 -- -- 48
2019-02-15 01:00:00 15.8 0 Calma 11 Sudeste 0 -- -- 47
2019-02-15 00:00:00 16.2 4 Sudoeste 9 Sudoeste 0 -- -- 49
2019-02-14 23:00:00 16.2 4 Sudeste 9 Oeste 0 -- -- 54
2019-02-14 22:00:00 17 3 Sudeste 8 Este 0 -- -- 53
2019-02-14 21:00:00 18.9 4 Sur 10 Sur 0 -- -- 51
2019-02-14 20:00:00 19.9 6 Sudoeste 17 Oeste 0 -- -- 54
2019-02-14 19:00:00 21.4 11 Oeste 18 Oeste 0 -- -- 50
2019-02-14 18:00:00 24.3 7 Oeste 19 Oeste 0 -- -- 36
2019-02-14 17:00:00 26.2 8 Noroeste 22 Noroeste 0 -- -- 27
2019-02-14 16:00:00 26.9 12 Noroeste 22 Noroeste 0 -- -- 26
2019-02-14 15:00:00 27.7 10 Noroeste 21 Oeste 0 -- -- 22
2019-02-14 14:00:00 27.4 12 Oeste 22 Oeste 0 -- -- 20
2019-02-14 13:00:00 27.2 10 Noroeste 19 Oeste 0 -- -- 20
2019-02-14 12:00:00 26 10 Oeste 19 Oeste 0 -- -- 23
2019-02-14 11:00:00 24.4 9 Noroeste 18 Nordeste 0 -- -- 35
2019-02-14 10:00:00 22.8 4 Noroeste 13 Sudoeste 0 -- -- 39
2019-02-14 09:00:00 19.3 9 Oeste 14 Oeste 0 -- -- 51
2019-02-14 08:00:00 16.3 0 Calma 15 Sur 0 -- -- 30
2019-02-14 07:00:00 21.4 13 Sur 21 Sur 0 -- -- 18
2019-02-14 06:00:00 21.9 10 Sur 24 Sur 0 -- -- 18
2019-02-14 05:00:00 14.9 2 Sudoeste 7 Sudeste 0 -- -- 33
2019-02-14 04:00:00 15.1 3 Sudoeste 10 Nordeste 0 -- -- 36
2019-02-14 03:00:00 15 3 Sur 6 Sudeste 0 -- -- 36
2019-02-14 02:00:00 15.4 2 Sudeste 6 Norte 0 -- -- 38
2019-02-14 01:00:00 14.9 0 Calma 4 Noroeste 0 -- -- 42
2019-02-14 00:00:00 16 0 Calma 9 Sudeste 0 -- -- 36
2019-02-13 23:00:00 16.2 2 Oeste 5 Norte 0 -- -- 35
2019-02-13 22:00:00 16.3 2 Noroeste 12 Sudeste 0 -- -- 41
2019-02-13 21:00:00 15.6 0 Calma 5 Oeste 0 -- -- 57
2019-02-13 20:00:00 16.4 0 Calma 5 Oeste 0 -- -- 61
2019-02-13 19:00:00 18.6 0 Calma 4 Noroeste 0 -- -- 66
2019-02-13 18:00:00 21.7 2 Norte 11 Oeste 0 -- -- 56
2019-02-13 17:00:00 22.4 6 Norte 12 Noroeste 0 -- -- 59
2019-02-13 16:00:00 23.9 8 Noroeste 20 Oeste 0 -- -- 41
2019-02-13 15:00:00 25 8 Noroeste 27 Este 0 -- -- 44
2019-02-13 14:00:00 24.3 16 Este 31 Este 0 -- -- 50
2019-02-13 13:00:00 25.5 18 Este 30 Este 0 -- -- 31
2019-02-13 12:00:00 25 6 Noroeste 13 Noroeste 0 -- -- 33
2019-02-13 11:00:00 25.7 6 Nordeste 33 Sudeste 0 -- -- 41
2019-02-13 10:00:00 24.8 19 Sudeste 34 Sur 0 -- -- 19
2019-02-13 09:00:00 23 18 Sudeste 35 Sudeste 0 -- -- 19
2019-02-13 08:00:00 20.5 15 Sudeste 32 Sudeste 0 -- -- 21
2019-02-13 07:00:00 20.3 19 Sudeste 31 Sur 0 -- -- 22
2019-02-13 06:00:00 20.9 13 Sur 26 Sudeste 0 -- -- 19
2019-02-13 05:00:00 21.8 15 Sur 23 Sur 0 -- -- 18
2019-02-13 04:00:00 21.9 14 Sur 23 Sur 0 -- -- 20
2019-02-13 03:00:00 21.1 13 Sur 25 Sur 0 -- -- 19
2019-02-13 02:00:00 20.1 17 Sudeste 26 Sur 0 -- -- 24
2019-02-13 01:00:00 19.3 15 Sudeste 26 Sudeste 0 -- -- 29
2019-02-13 00:00:00 18.3 9 Sudeste 15 Sur 0 -- -- 27
2019-02-12 23:00:00 18.9 9 Sudeste 14 Sudeste 0 -- -- 31
2019-02-12 22:00:00 15.4 4 Sudeste 11 Sudeste 0 -- -- 53
2019-02-12 21:00:00 16.5 6 Sudeste 9 Sur 0 -- -- 55
2019-02-12 20:00:00 16.7 2 Sudeste 5 Oeste 0 -- -- 70
2019-02-12 19:00:00 19 3 Oeste 6 Sudeste 0 -- -- 64
2019-02-12 18:00:00 21.4 6 Sudeste 18 Este 0 -- -- 57
2019-02-12 17:00:00 22 13 Este 24 Este 0 -- -- 58
2019-02-12 16:00:00 23 16 Este 29 Este 0 -- -- 53
2019-02-12 15:00:00 23.2 18 Este 30 Este 0 -- -- 49
2019-02-12 14:00:00 25 18 Este 33 Este 0 -- -- 37
2019-02-12 13:00:00 25.5 22 Este 39 Este 0 -- -- 30
2019-02-12 12:00:00 25.7 19 Este 37 Este 0 -- -- 25
2019-02-12 11:00:00 25.5 21 Sudeste 36 Sudeste 0 -- -- 22
2019-02-12 10:00:00 24.7 22 Sudeste 35 Sudeste 0 -- -- 21
2019-02-12 09:00:00 23 17 Sudeste 31 Sur 0 -- -- 22
2019-02-12 08:00:00 21.2 17 Sur 30 Sudeste 0 -- -- 23
2019-02-12 07:00:00 21.2 17 Sur 27 Sur 0 -- -- 22
2019-02-12 06:00:00 19.3 13 Sudeste 19 Sudeste 0 -- -- 25
2019-02-12 05:00:00 20 12 Sur 24 Sudeste 0 -- -- 24
2019-02-12 04:00:00 20.8 13 Sur 20 Sur 0 -- -- 22
2019-02-12 03:00:00 18.9 9 Sur 18 Sur 0 -- -- 23
2019-02-12 02:00:00 20.7 12 Sur 19 Sur 0 -- -- 19
2019-02-12 01:00:00 20.7 12 Sur 17 Sur 0 -- -- 18
2019-02-12 00:00:00 20.4 12 Sur 19 Sur 0 -- -- 19
2019-02-11 23:00:00 16.8 10 Sudeste 15 Sudeste 0 -- -- 31
2019-02-11 22:00:00 14.8 7 Sudeste 10 Este 0 -- -- 40
2019-02-11 21:00:00 15.6 0 Calma 6 Noroeste 0 -- -- 53
2019-02-11 20:00:00 16.5 0 Calma 7 Sudeste 0 -- -- 48
2019-02-11 19:00:00 19.8 4 Sudoeste 8 Sudoeste 0 -- -- 39
2019-02-11 18:00:00 23.8 5 Sur 12 Este 0 -- -- 27
2019-02-11 17:00:00 22.9 9 Este 20 Nordeste 0 -- -- 47
2019-02-11 16:00:00 24.3 12 Este 22 Este 0 -- -- 44
2019-02-11 15:00:00 24.7 15 Este 28 Sudeste 0 -- -- 39
2019-02-11 14:00:00 26.9 19 Sudeste 36 Sudeste 0 -- -- 23
2019-02-11 13:00:00 26.4 19 Sudeste 36 Sudeste 0 -- -- 26
2019-02-11 12:00:00 24.3 24 Sudeste 35 Sudeste 0 -- -- 29
2019-02-11 11:00:00 23.8 20 Sudeste 32 Sudeste 0 -- -- 30
2019-02-11 10:00:00 22.6 19 Sudeste 36 Sudeste 0 -- -- 33
2019-02-11 09:00:00 20.6 19 Sudeste 42 Sudeste 0 -- -- 39
2019-02-11 08:00:00 19.6 17 Sudeste 32 Sudeste 0 -- -- 38
2019-02-11 07:00:00 19.8 16 Sudeste 29 Sudeste 0 -- -- 34
2019-02-11 06:00:00 19.7 15 Sudeste 29 Sudeste 0 -- -- 33
2019-02-11 05:00:00 20.1 17 Sudeste 30 Sur 0 -- -- 33
2019-02-11 04:00:00 19.2 13 Sudeste 25 Sur 0 -- -- 33
2019-02-11 03:00:00 17.9 13 Sudeste 21 Sudeste 0 -- -- 36
2019-02-11 02:00:00 17.3 9 Sudeste 14 Sudeste 0 -- -- 51
2019-02-11 01:00:00 17.3 9 Sudeste 13 Sudeste 0 -- -- 50
2019-02-11 00:00:00 17.3 8 Sudeste 18 Sudeste 0 -- -- 43
2019-02-10 23:00:00 18.3 9 Sudeste 19 Sudeste 0 -- -- 41
2019-02-10 22:00:00 17.3 10 Sudeste 18 Sudeste 0 -- -- 60
2019-02-10 21:00:00 16.5 7 Sudeste 9 Sudeste 0 -- -- 74
2019-02-10 20:00:00 17.1 7 Sudeste 10 Sudeste 0 -- -- 47
2019-02-10 19:00:00 18.7 7 Sudeste 21 Este 0 -- -- 44
2019-02-10 18:00:00 20.5 14 Este 27 Este 0 -- -- 47
2019-02-10 17:00:00 22.1 17 Este 30 Este 0 -- -- 34
2019-02-10 16:00:00 23.4 16 Este 30 Este 0 -- -- 28
2019-02-10 15:00:00 23.8 16 Este 29 Sudeste 0 -- -- 36
2019-02-10 14:00:00 23.9 17 Sudeste 30 Este 0 -- -- 37
2019-02-10 13:00:00 24.6 17 Sudeste 36 Sudeste 0 -- -- 30
2019-02-10 12:00:00 23.1 21 Sudeste 35 Sudeste 0 -- -- 33
2019-02-10 11:00:00 21.4 19 Este 27 Este 0 -- -- 46
2019-02-10 10:00:00 19 11 Este 21 Este 0 -- -- 75
2019-02-10 09:00:00 17.3 5 Sudeste 11 Sudeste 0 -- -- 82
2019-02-10 08:00:00 14.4 6 Sudeste 11 Sudeste 0 -- -- 72
2019-02-10 07:00:00 12.6 7 Sudeste 10 Sudeste 0 -- -- 75
2019-02-10 06:00:00 11.9 5 Este 11 Este 0 -- -- 73
2019-02-10 05:00:00 14.8 7 Sur 15 Sur 0 -- -- 90
2019-02-10 04:00:00 14.9 10 Sur 15 Sur 0 -- -- 93
2019-02-10 03:00:00 13.8 4 Sudeste 8 Sur 0 -- -- 92
2019-02-10 02:00:00 14.2 4 Sur 9 Sur 0 -- -- 92
2019-02-10 01:00:00 15 6 Sudeste 14 Sudeste 0 -- -- 90
2019-02-10 00:00:00 15.4 7 Sudeste 12 Sudeste 0 -- -- 91
2019-02-09 23:00:00 15 6 Sudeste 9 Sur 0 -- -- 90
2019-02-09 22:00:00 14.4 6 Sur 9 Sudeste 0 -- -- 88
2019-02-09 21:00:00 15.1 4 Sudeste 12 Este 0 -- -- 85
2019-02-09 20:00:00 16 7 Este 14 Sudeste 0 -- -- 77
2019-02-09 19:00:00 17.1 10 Este 21 Este 0 -- -- 74
2019-02-09 18:00:00 18.8 13 Este 25 Este 0 -- -- 66
2019-02-09 17:00:00 19.5 12 Este 26 Este 0 -- -- 69
2019-02-09 16:00:00 19.5 18 Este 29 Este 0 -- -- 73
2019-02-09 15:00:00 19.8 14 Nordeste 28 Este 0 -- -- 69
2019-02-09 14:00:00 19.9 16 Este 29 Este 0 -- -- 68
2019-02-09 13:00:00 19.7 16 Este 27 Este 0 -- -- 69
2019-02-09 12:00:00 18.9 14 Nordeste 22 Nordeste 0 -- -- 71
2019-02-09 11:00:00 18.4 12 Nordeste 21 Este 0 -- -- 70
2019-02-09 10:00:00 17.4 13 Este 23 Sudeste 0 -- -- 71
2019-02-09 09:00:00 15.4 13 Sudeste 22 Sudeste 0 -- -- 75
2019-02-09 08:00:00 14 10 Sudeste 16 Sudeste 0 -- -- 78
2019-02-09 07:00:00 14.3 9 Sudeste 20 Sudeste 0 -- -- 77
2019-02-09 06:00:00 14.3 10 Sudeste 17 Sur 0 -- -- 77
2019-02-09 05:00:00 14.3 10 Sudeste 17 Sudeste 0 -- -- 78
2019-02-09 04:00:00 14.8 8 Sudeste 14 Sudeste 0 -- -- 77
2019-02-09 03:00:00 15.1 9 Sur 14 Sudeste 0 -- -- 76
2019-02-09 02:00:00 14.9 7 Sudeste 16 Sur 0 -- -- 76
2019-02-09 01:00:00 15.1 8 Sudeste 15 Sudeste 0 -- -- 76
2019-02-09 00:00:00 15 8 Sur 15 Sur 0 -- -- 77
2019-02-08 23:00:00 15 9 Sur 17 Sur 0 -- -- 77
2019-02-08 22:00:00 15.3 8 Sudeste 15 Sudeste 0 -- -- 76
2019-02-08 21:00:00 15.5 5 Sudeste 12 Sudeste 0 -- -- 77
2019-02-08 20:00:00 15.2 6 Sudeste 13 Este 0 -- -- 77
2019-02-08 19:00:00 16 8 Este 14 Este 0 -- -- 74
2019-02-08 18:00:00 16.9 8 Nordeste 18 Este 0 -- -- 70
2019-02-08 17:00:00 17.9 10 Nordeste 22 Este 0 -- -- 68
2019-02-08 16:00:00 18.4 12 Este 26 Este 0 -- -- 66
2019-02-08 15:00:00 18.6 14 Este 22 Este 0 -- -- 65
2019-02-08 14:00:00 18.8 15 Este 28 Este 0 -- -- 62
2019-02-08 13:00:00 18.9 14 Este 24 Este 0 -- -- 64
2019-02-08 12:00:00 18.6 13 Este 24 Este 0 -- -- 64
2019-02-08 11:00:00 17.5 13 Este 23 Este 0 -- -- 68
2019-02-08 10:00:00 16.7 11 Este 19 Este 0 -- -- 68
2019-02-08 09:00:00 15.3 7 Sudeste 15 Sudeste 0 -- -- 75
2019-02-08 08:00:00 14.6 10 Sur 18 Sur 0 -- -- 76
2019-02-08 07:00:00 14.4 9 Sur 15 Sur 0 -- -- 77
2019-02-08 06:00:00 14.3 9 Sur 16 Sur 0 -- -- 76
2019-02-08 05:00:00 14.9 10 Sudeste 16 Sur 0 -- -- 76
2019-02-08 04:00:00 14.8 9 Sudeste 17 Sudeste 0 -- -- 78
2019-02-08 03:00:00 14.7 7 Sudeste 15 Este 0 -- -- 79
2019-02-08 02:00:00 15.5 9 Este 17 Este 0 -- -- 81
2019-02-08 01:00:00 15.7 9 Este 17 Este 0 -- -- 81
2019-02-08 00:00:00 16.1 10 Este 19 Este 0 -- -- 83
2019-02-07 23:00:00 16.3 11 Este 19 Este 0 -- -- 83
2019-02-07 22:00:00 16.5 9 Este 20 Nordeste 0 -- -- 82
2019-02-07 21:00:00 16.4 7 Este 13 Este 0 -- -- 79
2019-02-07 20:00:00 16.7 8 Este 14 Este 0 -- -- 76
2019-02-07 19:00:00 17.2 8 Este 15 Este 0 -- -- 75
2019-02-07 18:00:00 17.8 9 Este 19 Nordeste 0 -- -- 72
2019-02-07 17:00:00 18.6 9 Nordeste 19 Nordeste 0 -- -- 71
2019-02-07 16:00:00 19.1 13 Nordeste 26 Este 0 -- -- 70
2019-02-07 15:00:00 19.6 12 Este 21 Este 0 -- -- 65
2019-02-07 14:00:00 19 14 Nordeste 25 Este 0 -- -- 71
2019-02-07 13:00:00 19.9 13 Este 23 Este 0 -- -- 66
2019-02-07 12:00:00 19.5 13 Este 23 Este 0 -- -- 68
2019-02-07 11:00:00 18.5 14 Este 23 Este 0 -- -- 70
2019-02-07 10:00:00 17.7 10 Sudeste 17 Este 0 -- -- 75
2019-02-07 09:00:00 16.1 10 Sudeste 17 Sur 0 -- -- 76
2019-02-07 08:00:00 14.7 11 Sudeste 16 Sudeste 0 -- -- 83
2019-02-07 07:00:00 14.7 10 Sudeste 16 Sudeste 0 -- -- 83
2019-02-07 06:00:00 14.8 9 Sudeste 14 Sudeste 0 -- -- 85
2019-02-07 05:00:00 14.8 8 Sudeste 14 Sudeste 0 -- -- 85
2019-02-07 04:00:00 15 6 Sudeste 14 Sudeste 0 -- -- 85
2019-02-07 03:00:00 15.2 9 Sudeste 13 Sur 0 -- -- 84
2019-02-07 02:00:00 15.1 7 Sudeste 11 Sudeste 0 -- -- 83
2019-02-07 01:00:00 15.3 8 Sudeste 12 Sudeste 0 -- -- 78
2019-02-07 00:00:00 15.5 5 Sudeste 12 Sudeste 0 -- -- 72
2019-02-06 23:00:00 16.4 7 Sudeste 15 Sur 0 -- -- 42
2019-02-06 22:00:00 17 9 Sudeste 15 Sur 0 -- -- 53
2019-02-06 21:00:00 17.3 10 Sur 16 Sudeste 0 -- -- 40
2019-02-06 20:00:00 16.5 7 Sudeste 10 Este 0 -- -- 37
2019-02-06 19:00:00 18.3 7 Este 19 Este 0 -- -- 32
2019-02-06 18:00:00 20.4 12 Este 22 Sudeste 0 -- -- 37
2019-02-06 17:00:00 21.5 13 Este 27 Este 0 -- -- 30
2019-02-06 16:00:00 21.8 17 Este 31 Este 0 -- -- 33
2019-02-06 15:00:00 21.1 21 Este 34 Este 0 -- -- 51
2019-02-06 14:00:00 22 21 Este 32 Este 0 -- -- 32
2019-02-06 13:00:00 22.2 21 Este 33 Sudeste 0 -- -- 29
2019-02-06 12:00:00 22.2 18 Sudeste 33 Sudeste 0 -- -- 31
2019-02-06 11:00:00 20.7 18 Sudeste 31 Sudeste 0 -- -- 41
2019-02-06 10:00:00 19.6 14 Sudeste 24 Sudeste 0 -- -- 48
2019-02-06 09:00:00 16.7 8 Sudeste 17 Sudeste 0 -- -- 41
2019-02-06 08:00:00 15.6 11 Sudeste 16 Sudeste 0 -- -- 37
2019-02-06 07:00:00 15.9 9 Sur 19 Sudeste 0 -- -- 39
2019-02-06 06:00:00 16.2 13 Sudeste 21 Sudeste 0 -- -- 39
2019-02-06 05:00:00 16.3 13 Sudeste 22 Sur 0 -- -- 39
2019-02-06 04:00:00 16.4 15 Sudeste 23 Sur 0 -- -- 37
2019-02-06 03:00:00 16.6 15 Sur 23 Sudeste 0 -- -- 48
2019-02-06 02:00:00 16.2 14 Sur 20 Sudeste 0 -- -- 49
2019-02-06 01:00:00 16.3 13 Sur 17 Sur 0 -- -- 54
2019-02-06 00:00:00 16.2 9 Sur 19 Sur 0 -- -- 45
2019-02-05 23:00:00 16.1 9 Sudeste 14 Sudeste 0 -- -- 34
2019-02-05 22:00:00 16.8 9 Sudeste 19 Este 0 -- -- 26
2019-02-05 21:00:00 16.8 11 Sudeste 16 Sur 0 -- -- 25
2019-02-05 20:00:00 16.5 4 Sudeste 21 Sudeste 0 -- -- 30
2019-02-05 19:00:00 18.2 12 Este 27 Sudeste 0 -- -- 27
2019-02-05 18:00:00 20 14 Sudeste 33 Sudeste 0 -- -- 21
2019-02-05 17:00:00 21.8 18 Sudeste 36 Sudeste 0 -- -- 20
2019-02-05 16:00:00 22.6 23 Sudeste 39 Sudeste 0 -- -- 18
2019-02-05 15:00:00 22.9 22 Sudeste 43 Sudeste 0 -- -- 20
2019-02-05 14:00:00 22.9 22 Sudeste 46 Sudeste 0 -- -- 20
2019-02-05 13:00:00 22.9 21 Sudeste 43 Sudeste 0 -- -- 23
2019-02-05 12:00:00 22.5 21 Sudeste 41 Sudeste 0 -- -- 26
2019-02-05 11:00:00 21.9 20 Sudeste 40 Sudeste 0 -- -- 28
2019-02-05 10:00:00 20.8 16 Sudeste 26 Sudeste 0 -- -- 31
2019-02-05 09:00:00 17.9 6 Sudeste 14 Sudeste 0 -- -- 36
2019-02-05 08:00:00 16.3 8 Sudeste 14 Sudeste 0 -- -- 37
2019-02-05 07:00:00 16 10 Sudeste 19 Sudeste 0 -- -- 54
2019-02-05 06:00:00 16.1 11 Sudeste 21 Sudeste 0 -- -- 68
2019-02-05 05:00:00 16.2 12 Sudeste 21 Sudeste 0 -- -- 63
2019-02-05 04:00:00 16.1 12 Sudeste 21 Sudeste 0 -- -- 55
2019-02-05 03:00:00 15.8 6 Sudeste 10 Sur 0 -- -- 53
2019-02-05 02:00:00 16.1 7 Sudeste 14 Sur 0 -- -- 50
2019-02-05 01:00:00 16.9 8 Sur 14 Sudeste 0 -- -- 44
2019-02-05 00:00:00 15.3 7 Sur 14 Sudeste 0 -- -- 58
2019-02-04 23:00:00 16.3 9 Sudeste 13 Sudeste 0 -- -- 74
2019-02-04 22:00:00 16 8 Sudeste 12 Sudeste 0 -- -- 64
2019-02-04 21:00:00 16.7 9 Sur 15 Sudeste 0 -- -- 71
2019-02-04 20:00:00 16.9 9 Sudeste 14 Sudeste 0 -- -- 75
2019-02-04 19:00:00 17.5 6 Sudeste 21 Sudeste 0 -- -- 73
2019-02-04 18:00:00 18.8 14 Este 26 Sudeste 0 -- -- 68
2019-02-04 17:00:00 19.5 17 Este 28 Este 0 -- -- 64
2019-02-04 16:00:00 20 17 Este 28 Este 0 -- -- 64
2019-02-04 15:00:00 19.5 20 Este 32 Este 0 -- -- 70
2019-02-04 14:00:00 19.5 22 Este 32 Este 0 -- -- 72
2019-02-04 13:00:00 19.3 18 Este 28 Este 0 -- -- 75
2019-02-04 12:00:00 18.9 17 Este 35 Este 0 -- -- 75
2019-02-04 11:00:00 18.5 15 Este 24 Este 0 -- -- 74
2019-02-04 10:00:00 17.1 12 Este 17 Este 0 -- -- 78
2019-02-04 09:00:00 16.3 6 Este 13 Este 0 -- -- 79
2019-02-04 08:00:00 16.2 9 Este 16 Este 0 -- -- 79
2019-02-04 07:00:00 16.1 8 Este 14 Nordeste 0 -- -- 79
2019-02-04 06:00:00 16 9 Este 18 Este 0 -- -- 78
2019-02-04 05:00:00 16.1 10 Este 19 Este 0 -- -- 76
2019-02-04 04:00:00 15.9 8 Este 20 Nordeste 0 -- -- 75
2019-02-04 03:00:00 15.9 9 Este 19 Este 0 -- -- 74
2019-02-04 02:00:00 16.1 11 Nordeste 19 Nordeste 0 -- -- 74
2019-02-04 01:00:00 16.1 10 Este 22 Este 0 -- -- 76
2019-02-04 00:00:00 16.1 11 Este 20 Nordeste 0 -- -- 75
2019-02-03 23:00:00 16.1 10 Nordeste 21 Nordeste 0 -- -- 77
2019-02-03 22:00:00 16 12 Nordeste 26 Nordeste 0 -- -- 76
2019-02-03 21:00:00 16.1 10 Nordeste 22 Nordeste 0 -- -- 75
2019-02-03 20:00:00 16.3 11 Nordeste 21 Este 0 -- -- 73
2019-02-03 19:00:00 16.3 9 Nordeste 21 Nordeste 0 -- -- 72
2019-02-03 18:00:00 16.7 10 Nordeste 27 Nordeste 0 -- -- 72
2019-02-03 17:00:00 17 13 Nordeste 25 Nordeste 0 -- -- 70
2019-02-03 16:00:00 17.7 12 Nordeste 23 Nordeste 0 -- -- 69
2019-02-03 15:00:00 17.5 14 Nordeste 24 Nordeste 0 -- -- 69
2019-02-03 14:00:00 17.6 10 Nordeste 23 Nordeste 0 -- -- 66
2019-02-03 13:00:00 17.5 13 Nordeste 25 Nordeste 0 -- -- 65
2019-02-03 12:00:00 18 13 Nordeste 26 Nordeste 0 -- -- 66
2019-02-03 11:00:00 17.2 9 Nordeste 22 Norte 0 -- -- 67
2019-02-03 10:00:00 16.6 10 Nordeste 29 Nordeste 0 -- -- 64
2019-02-03 09:00:00 16.3 9 Nordeste 27 Nordeste 0 -- -- 69
2019-02-03 08:00:00 16.2 11 Nordeste 24 Nordeste 0 -- -- 71
2019-02-03 07:00:00 16.2 14 Nordeste 26 Nordeste 0 -- -- 67
2019-02-03 06:00:00 16.1 9 Este 31 Nordeste 0 -- -- 67
2019-02-03 05:00:00 16.5 18 Nordeste 31 Nordeste 0 -- -- 64
2019-02-03 04:00:00 16.3 16 Nordeste 31 Nordeste 0 -- -- 65
2019-02-03 03:00:00 16.5 11 Nordeste 30 Nordeste 0 -- -- 69
2019-02-03 02:00:00 16.6 15 Nordeste 32 Nordeste 0 -- -- 65
2019-02-03 01:00:00 16.6 13 Nordeste 24 Nordeste 0 -- -- 64
2019-02-03 00:00:00 16.7 12 Norte 23 Nordeste 0 -- -- 72
2019-02-02 23:00:00 16.7 12 Nordeste 31 Nordeste 0 -- -- 64
2019-02-02 22:00:00 16.6 14 Norte 29 Norte 0 -- -- 75
2019-02-02 21:00:00 16.8 13 Nordeste 24 Nordeste 0 -- -- 70
2019-02-02 20:00:00 16.6 9 Norte 27 Nordeste 0 -- -- 63
2019-02-02 19:00:00 16.6 12 Nordeste 25 Nordeste 0 -- -- 63
2019-02-02 18:00:00 16.7 6 Norte 18 Nordeste 0 -- -- 72
2019-02-02 17:00:00 16.4 4 Nordeste 27 Norte 0 -- -- 70
2019-02-02 16:00:00 17.3 7 Nordeste 20 Nordeste 0 -- -- 60
2019-02-02 15:00:00 17.8 11 Nordeste 31 Norte 0 -- -- 62
2019-02-02 14:00:00 17.7 6 Norte 16 Norte 0 -- -- 67
2019-02-02 13:00:00 17.7 9 Norte 23 Norte 0 -- -- 61
2019-02-02 12:00:00 17.5 14 Nordeste 27 Nordeste 0 -- -- 65
2019-02-02 11:00:00 17.4 12 Nordeste 25 Nordeste 0 -- -- 69
2019-02-02 10:00:00 17.7 14 Norte 29 Norte 0 -- -- 68
2019-02-02 09:00:00 16.7 13 Norte 26 Norte 0 -- -- 71
2019-02-02 08:00:00 16.3 10 Norte 31 Norte 0.2 -- -- 70
2019-02-02 07:00:00 16.4 13 Nordeste 32 Nordeste 0 -- -- 71
2019-02-02 06:00:00 16.2 11 Nordeste 32 Norte 0 -- -- 82
2019-02-02 05:00:00 16.6 17 Norte 33 Norte 0 -- -- 80
2019-02-02 04:00:00 16.5 19 Norte 35 Norte 0 -- -- 82
2019-02-02 03:00:00 16.3 15 Nordeste 32 Nordeste 1 -- -- 93
2019-02-02 02:00:00 16.7 11 Norte 28 Norte 0.2 -- -- 95
2019-02-02 01:00:00 16.7 5 Noroeste 22 Norte 4 -- -- 95
2019-02-02 00:00:00 17.1 6 Oeste 14 Oeste 0 -- -- 92
2019-02-01 23:00:00 17 12 Oeste 26 Oeste 0.6 -- -- 91
2019-02-01 22:00:00 17.7 14 Oeste 24 Oeste 0 -- -- 86
2019-02-01 21:00:00 17.7 13 Oeste 27 Oeste 0 -- -- 83
2019-02-01 20:00:00 17.7 18 Noroeste 32 Oeste 0 -- -- 83
2019-02-01 19:00:00 17.3 15 Oeste 33 Oeste 0 -- -- 82
2019-02-01 18:00:00 18.1 19 Noroeste 35 Noroeste 0 -- -- 78
2019-02-01 17:00:00 19.2 13 Oeste 26 Oeste 0 -- -- 68
2019-02-01 16:00:00 20.5 13 Oeste 28 Noroeste 0 -- -- 61
2019-02-01 15:00:00 20.5 13 Oeste 32 Oeste 0 -- -- 61
2019-02-01 14:00:00 20.4 13 Oeste 27 Oeste 0 -- -- 61
2019-02-01 13:00:00 20.2 15 Oeste 27 Oeste 0 -- -- 60
2019-02-01 12:00:00 19 14 Oeste 26 Noroeste 0 -- -- 61
2019-02-01 11:00:00 19.2 13 Oeste 22 Oeste 0 -- -- 59
2019-02-01 10:00:00 17.9 10 Oeste 19 Noroeste 0 -- -- 63
2019-02-01 09:00:00 17.2 9 Noroeste 21 Noroeste 0 -- -- 63
2019-02-01 08:00:00 16.9 12 Noroeste 24 Noroeste 0 -- -- 63
2019-02-01 07:00:00 16.8 15 Noroeste 26 Noroeste 0 -- -- 67
2019-02-01 06:00:00 16.7 12 Noroeste 26 Oeste 0 -- -- 63
2019-02-01 05:00:00 16.7 13 Noroeste 27 Oeste 0 -- -- 66
2019-02-01 04:00:00 16.6 12 Oeste 26 Noroeste 0 -- -- 66
2019-02-01 03:00:00 16.7 13 Noroeste 25 Noroeste 0 -- -- 66
2019-02-01 02:00:00 17 15 Noroeste 26 Noroeste 0 -- -- 68
2019-02-01 01:00:00 17 11 Noroeste 26 Noroeste 0 -- -- 67
2019-02-01 00:00:00 16.9 13 Noroeste 23 Oeste 0 -- -- 67
2019-01-31 23:00:00 16.9 11 Noroeste 23 Noroeste 0 -- -- 66
2019-01-31 22:00:00 16.8 8 Noroeste 22 Oeste 0 -- -- 67
2019-01-31 21:00:00 16.6 10 Noroeste 19 Noroeste 0 -- -- 68
2019-01-31 20:00:00 16.3 7 Noroeste 17 Oeste 0 -- -- 73
2019-01-31 19:00:00 16.6 8 Noroeste 14 Noroeste 0 -- -- 74
2019-01-31 18:00:00 16.8 9 Noroeste 16 Oeste 0 -- -- 70
2019-01-31 17:00:00 17.3 9 Noroeste 18 Noroeste 0 -- -- 69
2019-01-31 16:00:00 17.7 9 Noroeste 21 Norte 0 -- -- 68
2019-01-31 15:00:00 18.9 9 Noroeste 18 Oeste 0 -- -- 66
2019-01-31 14:00:00 19 9 Noroeste 21 Norte 0 -- -- 66
2019-01-31 13:00:00 18.8 10 Norte 19 Norte 0 -- -- 67
2019-01-31 12:00:00 19.2 7 Norte 18 Norte 0 -- -- 65
2019-01-31 11:00:00 17.4 12 Norte 23 Norte 0 -- -- 71
2019-01-31 10:00:00 17.4 10 Norte 20 Norte 0 -- -- 72
2019-01-31 09:00:00 16.4 6 Norte 16 Norte 0 -- -- 68
2019-01-31 08:00:00 16.1 9 Noroeste 26 Norte 0 -- -- 65
2019-01-31 07:00:00 16.2 7 Noroeste 18 Oeste 0 -- -- 70
2019-01-31 06:00:00 15.8 6 Oeste 15 Noroeste 0 -- -- 70
2019-01-31 05:00:00 15.9 7 Noroeste 18 Noroeste 0 -- -- 66
2019-01-31 04:00:00 15.9 8 Norte 24 Norte 0 -- -- 76
2019-01-31 03:00:00 16.1 6 Noroeste 17 Noroeste 0 -- -- 69
2019-01-31 02:00:00 15.9 8 Noroeste 27 Norte 0 -- -- 71
2019-01-31 01:00:00 16.2 15 Norte 28 Norte 0 -- -- 67
2019-01-31 00:00:00 16 7 Oeste 19 Noroeste 0 -- -- 69
2019-01-30 23:00:00 16 9 Noroeste 26 Nordeste 0 -- -- 68
2019-01-30 22:00:00 16.3 8 Norte 21 Nordeste 0 -- -- 67
2019-01-30 21:00:00 16.5 8 Norte 19 Noroeste 0 -- -- 66
2019-01-30 20:00:00 16.6 8 Norte 26 Norte 0 -- -- 74
2019-01-30 19:00:00 16.8 10 Norte 20 Norte 0 -- -- 72
2019-01-30 18:00:00 17.1 10 Noroeste 22 Norte 0 -- -- 69
2019-01-30 17:00:00 17.4 8 Norte 22 Norte 0 -- -- 72
2019-01-30 16:00:00 17.7 11 Norte 22 Norte 0 -- -- 72
2019-01-30 15:00:00 17.8 10 Norte 24 Norte 0 -- -- 76
2019-01-30 14:00:00 18.8 10 Norte 22 Norte 0 -- -- 72
2019-01-30 13:00:00 19.4 13 Norte 22 Norte 0 -- -- 64
2019-01-30 12:00:00 18.8 11 Norte 19 Norte 0 -- -- 70
2019-01-30 11:00:00 18 8 Norte 16 Norte 0 -- -- 72
2019-01-30 10:00:00 17.1 9 Nordeste 21 Nordeste 0 -- -- 68
2019-01-30 09:00:00 16.3 4 Noroeste 15 Norte 0 -- -- 80
2019-01-30 08:00:00 15.9 6 Norte 25 Norte 0 -- -- 78
2019-01-30 07:00:00 16 6 Norte 24 Norte 0 -- -- 74
2019-01-30 06:00:00 16 7 Norte 25 Norte 0 -- -- 75
2019-01-30 05:00:00 15.9 3 Norte 24 Norte 0 -- -- 76
2019-01-30 04:00:00 16.1 8 Nordeste 19 Norte 0 -- -- 81
2019-01-30 03:00:00 15.7 4 Norte 22 Norte 0 -- -- 79
2019-01-30 02:00:00 15.5 12 Norte 20 Norte 0.4 -- -- 88
2019-01-30 01:00:00 15.6 11 Norte 22 Norte 0 -- -- 90
2019-01-30 00:00:00 16 9 Nordeste 22 Nordeste 0 -- -- 87
2019-01-29 23:00:00 15.7 4 Norte 22 Norte 0 -- -- 92
2019-01-29 22:00:00 15.4 4 Sudeste 19 Norte 0.4 -- -- 94
2019-01-29 21:00:00 16 5 Norte 19 Nordeste 0 -- -- 90
2019-01-29 20:00:00 16 4 Nordeste 17 Norte 0 -- -- 90
2019-01-29 19:00:00 15.8 6 Este 12 Sudoeste 0.2 -- -- 91
2019-01-29 18:00:00 15.9 4 Noroeste 18 Noroeste 0 -- -- 90
2019-01-29 17:00:00 17.2 7 Norte 19 Nordeste 0 -- -- 81
2019-01-29 16:00:00 17.2 8 Nordeste 15 Norte 0 -- -- 78
2019-01-29 15:00:00 16.4 8 Norte 21 Norte 0 -- -- 88
2019-01-29 14:00:00 17.7 8 Norte 23 Norte 0 -- -- 72
2019-01-29 13:00:00 17.8 7 Nordeste 21 Norte 0 -- -- 73
2019-01-29 12:00:00 17.7 10 Nordeste 21 Nordeste 0 -- -- 70
2019-01-29 11:00:00 17.4 10 Norte 17 Norte 0 -- -- 73
2019-01-29 10:00:00 16.7 7 Nordeste 22 Nordeste 0 -- -- 77
2019-01-29 09:00:00 16.8 6 Nordeste 22 Nordeste 0 -- -- 74
2019-01-29 08:00:00 16.7 13 Nordeste 25 Nordeste 0 -- -- 75
2019-01-29 07:00:00 16.7 9 Nordeste 20 Nordeste 0 -- -- 75
2019-01-29 06:00:00 16.5 9 Nordeste 17 Norte 0 -- -- 77
2019-01-29 05:00:00 16.2 5 Nordeste 15 Norte 0 -- -- 76
2019-01-29 04:00:00 16.1 8 Norte 15 Norte 0 -- -- 80
2019-01-29 03:00:00 15.7 4 Oeste 11 Noroeste 0 -- -- 77
2019-01-29 02:00:00 15.8 3 Norte 14 Norte 0 -- -- 74
2019-01-29 01:00:00 16.3 6 Norte 18 Nordeste 0 -- -- 73
2019-01-29 00:00:00 16.5 8 Este 22 Nordeste 0 -- -- 75
2019-01-28 23:00:00 16.3 5 Este 20 Nordeste 0 -- -- 74
2019-01-28 22:00:00 16.3 9 Este 25 Nordeste 0 -- -- 71
2019-01-28 21:00:00 16.6 13 Nordeste 24 Nordeste 0 -- -- 69
2019-01-28 20:00:00 16.4 4 Nordeste 28 Nordeste 0 -- -- 73
2019-01-28 19:00:00 16.7 15 Nordeste 28 Nordeste 0 -- -- 70
2019-01-28 18:00:00 17.2 7 Nordeste 28 Nordeste 0 -- -- 71
2019-01-28 17:00:00 17.3 4 Nordeste 24 Nordeste 0 -- -- 69
2019-01-28 16:00:00 17.3 13 Nordeste 23 Nordeste 0 -- -- 71
2019-01-28 15:00:00 17.8 10 Nordeste 23 Norte 0 -- -- 70
2019-01-28 14:00:00 18.5 10 Nordeste 22 Nordeste 0 -- -- 64
2019-01-28 13:00:00 18.8 7 Nordeste 19 Nordeste 0 -- -- 65
2019-01-28 12:00:00 18.5 10 Nordeste 20 Este 0 -- -- 63
2019-01-28 11:00:00 18.3 7 Nordeste 27 Nordeste 0 -- -- 64
2019-01-28 10:00:00 17.7 9 Nordeste 25 Nordeste 0 -- -- 70
2019-01-28 09:00:00 17.3 6 Nordeste 18 Nordeste 0 -- -- 77
2019-01-28 08:00:00 17 6 Nordeste 21 Norte 0 -- -- 75
2019-01-28 07:00:00 16.6 8 Norte 20 Nordeste 0 -- -- 82
2019-01-28 06:00:00 16.6 10 Nordeste 23 Nordeste 0 -- -- 81
2019-01-28 05:00:00 16.4 11 Norte 22 Norte 0 -- -- 79
2019-01-28 04:00:00 16.7 10 Nordeste 21 Nordeste 0 -- -- 79
2019-01-28 03:00:00 16.8 6 Nordeste 19 Nordeste 0 -- -- 81
2019-01-28 02:00:00 16.7 6 Nordeste 16 Norte 0 -- -- 83
2019-01-28 01:00:00 16.7 8 Norte 16 Norte 0 -- -- 83
2019-01-28 00:00:00 16.8 5 Norte 13 Norte 0 -- -- 82
2019-01-27 23:00:00 16.5 5 Norte 13 Norte 0 -- -- 79
2019-01-27 22:00:00 16.7 5 Norte 15 Nordeste 0 -- -- 78
2019-01-27 21:00:00 16.8 8 Norte 19 Norte 0 -- -- 77
2019-01-27 20:00:00 17.4 12 Norte 19 Norte 0 -- -- 77
2019-01-27 19:00:00 17.5 9 Norte 17 Norte 0 -- -- 73
2019-01-27 18:00:00 18 5 Norte 18 Norte 0 -- -- 72
2019-01-27 17:00:00 18.9 10 Norte 17 Norte 0 -- -- 66
2019-01-27 16:00:00 20.3 6 Norte 15 Norte 0 -- -- 68
2019-01-27 15:00:00 20 9 Norte 16 Norte 0 -- -- 63
2019-01-27 14:00:00 19.7 8 Norte 14 Norte 0 -- -- 62
2019-01-27 13:00:00 19.8 6 Norte 13 Norte 0 -- -- 64
2019-01-27 12:00:00 19.8 4 Nordeste 9 Nordeste 0 -- -- 68
2019-01-27 11:00:00 19.2 5 Nordeste 11 Nordeste 0 -- -- 71
2019-01-27 10:00:00 17.8 4 Nordeste 11 Nordeste 0 -- -- 80
2019-01-27 09:00:00 16 2 Nordeste 9 Sudoeste 0 -- -- 87
2019-01-27 08:00:00 14.9 5 Oeste 9 Sudoeste 0 -- -- 87
2019-01-27 07:00:00 15.6 5 Oeste 17 Oeste 0 -- -- 86
2019-01-27 06:00:00 15.5 11 Sudoeste 20 Sudoeste 0 -- -- 80
2019-01-27 05:00:00 15.5 12 Sudoeste 17 Sudoeste 0 -- -- 81
2019-01-27 04:00:00 13.9 7 Sudoeste 10 Sudoeste 0 -- -- 87
2019-01-27 03:00:00 13.4 4 Sudoeste 9 Sudoeste 0 -- -- 87
2019-01-27 02:00:00 14.3 7 Sudoeste 9 Sudoeste 0 -- -- 86
2019-01-27 01:00:00 14.5 4 Sur 9 Sur 0 -- -- 84
2019-01-27 00:00:00 14.8 7 Sur 12 Sur 0 -- -- 83
2019-01-26 23:00:00 15 7 Sur 11 Sur 0 -- -- 83
2019-01-26 22:00:00 15.1 8 Sur 12 Sur 0 -- -- 82
2019-01-26 21:00:00 15.2 6 Sur 8 Sudoeste 0 -- -- 86
2019-01-26 20:00:00 14.9 4 Sur 6 Sur 0 -- -- 89
2019-01-26 19:00:00 15.7 2 Sudeste 5 Norte 0 -- -- 85
2019-01-26 18:00:00 18 3 Nordeste 6 Este 0 -- -- 77
2019-01-26 17:00:00 18.8 4 Norte 8 Nordeste 0 -- -- 74
2019-01-26 16:00:00 18.8 3 Norte 10 Noroeste 0 -- -- 78
2019-01-26 15:00:00 18.5 4 Norte 11 Norte 0 -- -- 78
2019-01-26 14:00:00 19.1 6 Norte 12 Norte 0 -- -- 76
2019-01-26 13:00:00 18.7 4 Norte 9 Nordeste 0 -- -- 76
2019-01-26 12:00:00 18.4 5 Nordeste 9 Norte 0 -- -- 79
2019-01-26 11:00:00 18.1 4 Este 7 Nordeste 0 -- -- 80
2019-01-26 10:00:00 18.4 2 Nordeste 5 Nordeste 0 -- -- 78
2019-01-26 09:00:00 15.6 3 Sur 5 Sudoeste 0 -- -- 94
2019-01-26 08:00:00 12.2 3 Sudoeste 4 Sudoeste 0 -- -- 94
2019-01-26 07:00:00 13.2 0 Calma 12 Sur 0 -- -- 92
2019-01-26 06:00:00 14.2 7 Sur 9 Sur 0 -- -- 95
2019-01-26 05:00:00 13.1 3 Sudoeste 5 Sudoeste 0 -- -- 95
2019-01-26 04:00:00 13.7 3 Sudoeste 11 Sudoeste 0 -- -- 94
2019-01-26 03:00:00 13.2 3 Sudoeste 6 Sudoeste 0 -- -- 94
2019-01-26 02:00:00 14.2 5 Sudoeste 7 Sudoeste 0 -- -- 93
2019-01-26 01:00:00 14.8 2 Sudoeste 6 Sudeste 0.4 -- -- 92
2019-01-26 00:00:00 15.7 4 Sudoeste 9 Sudoeste 1 -- -- 90
2019-01-25 23:00:00 15.5 3 Sur 9 Sudoeste 0 -- -- 91
2019-01-25 22:00:00 15 4 Sudoeste 8 Sudoeste 0 -- -- 91
2019-01-25 21:00:00 15.1 3 Oeste 5 Sudoeste 0 -- -- 89
2019-01-25 20:00:00 16.6 2 Noroeste 10 Nordeste 0 -- -- 85
2019-01-25 19:00:00 16.8 2 Noroeste 10 Norte 0 -- -- 85
2019-01-25 18:00:00 17.6 3 Noroeste 8 Norte 0 -- -- 81
2019-01-25 17:00:00 18.1 4 Noroeste 10 Norte 0 -- -- 80
2019-01-25 16:00:00 18.6 7 Norte 13 Norte 0 -- -- 76
2019-01-25 15:00:00 19.2 8 Norte 14 Norte 0 -- -- 76
2019-01-25 14:00:00 18.7 6 Norte 13 Norte 0 -- -- 77
2019-01-25 13:00:00 19.4 6 Noroeste 12 Noroeste 0 -- -- 72
2019-01-25 12:00:00 18.9 5 Norte 8 Norte 0 -- -- 74
2019-01-25 11:00:00 18.5 3 Este 8 Sudeste 0 -- -- 74
2019-01-25 10:00:00 17.6 4 Sur 6 Sudeste 0 -- -- 86
2019-01-25 09:00:00 15.8 2 Oeste 7 Sudoeste 0.4 -- -- 93
2019-01-25 08:00:00 15.4 2 Sudoeste 14 Sudeste 0.8 -- -- 93
2019-01-25 07:00:00 15.4 8 Sur 16 Sur 0 -- -- 92
2019-01-25 06:00:00 15.6 3 Sur 6 Sudeste 0 -- -- 91
2019-01-25 05:00:00 15.8 4 Norte 16 Nordeste 0.4 -- -- 91
2019-01-25 04:00:00 15.7 4 Noroeste 9 Oeste 0.2 -- -- 92
2019-01-25 03:00:00 15.3 5 Sudoeste 8 Oeste 0 -- -- 93
2019-01-25 02:00:00 15.3 8 Sudoeste 13 Oeste 0.8 -- -- 91
2019-01-25 01:00:00 15.7 8 Oeste 13 Oeste 0.2 -- -- 90
2019-01-25 00:00:00 15.9 6 Oeste 14 Sudoeste 0 -- -- 89
2019-01-24 23:00:00 15.6 6 Oeste 14 Oeste 0 -- -- 87
2019-01-24 22:00:00 16 6 Oeste 14 Norte 0 -- -- 83
2019-01-24 21:00:00 16.4 10 Norte 24 Norte 0 -- -- 78
2019-01-24 20:00:00 16.7 14 Norte 29 Norte 0 -- -- 80
2019-01-24 19:00:00 16.3 4 Norte 14 Norte 0 -- -- 74
2019-01-24 18:00:00 17 8 Norte 18 Norte 0 -- -- 70
2019-01-24 17:00:00 17 4 Noroeste 22 Nordeste 0 -- -- 72
2019-01-24 16:00:00 17.4 12 Norte 28 Norte 0 -- -- 75
2019-01-24 15:00:00 19.1 9 Noroeste 16 Noroeste 0 -- -- 65
2019-01-24 14:00:00 18.2 6 Norte 17 Norte 0 -- -- 66
2019-01-24 13:00:00 18 5 Noroeste 13 Noroeste 0 -- -- 68
2019-01-24 12:00:00 17.1 2 Noroeste 10 Norte 0 -- -- 70
2019-01-24 11:00:00 16.1 8 Norte 25 Nordeste 0 -- -- 82
2019-01-24 10:00:00 17.7 9 Nordeste 29 Nordeste 0 -- -- 68
2019-01-24 09:00:00 16 8 Nordeste 25 Norte 0 -- -- 74
2019-01-24 08:00:00 15.3 10 Nordeste 20 Norte 0.2 -- -- 83
2019-01-24 07:00:00 15 5 Oeste 15 Nordeste 0.4 -- -- 89
2019-01-24 06:00:00 14.9 4 Sudoeste 12 Sudoeste 0.2 -- -- 88
2019-01-24 05:00:00 14.9 7 Oeste 28 Nordeste 0 -- -- 87
2019-01-24 04:00:00 15.8 7 Sudoeste 9 Sudoeste 0 -- -- 76
2019-01-24 03:00:00 15.7 3 Oeste 27 Norte 0 -- -- 77
2019-01-24 02:00:00 15.9 2 Oeste 17 Nordeste 0 -- -- 75
2019-01-24 01:00:00 15.2 2 Nordeste 14 Este 0 -- -- 75
2019-01-24 00:00:00 16.3 6 Nordeste 22 Nordeste 0 -- -- 71